sensor_id;sensor_type;location;lat;lon;timestamp;pressure;altitude;pressure_sealevel;temperature;humidity
54920;BME280;63804;53.120;8.764;2023-07-16T00:00:45;100854.88;;;21.09;72.88
54920;BME280;63804;53.120;8.764;2023-07-16T00:03:12;100859.44;;;21.09;72.33
54920;BME280;63804;53.120;8.764;2023-07-16T00:05:41;100861.31;;;21.08;72.27
54920;BME280;63804;53.120;8.764;2023-07-16T00:08:08;100878.28;;;21.09;71.88
54920;BME280;63804;53.120;8.764;2023-07-16T00:10:36;100870.75;;;21.04;71.91
54920;BME280;63804;53.120;8.764;2023-07-16T00:13:04;100874.13;;;21.06;70.82
54920;BME280;63804;53.120;8.764;2023-07-16T00:15:31;100859.16;;;21.04;70.65
54920;BME280;63804;53.120;8.764;2023-07-16T00:17:59;100845.41;;;20.99;70.47
54920;BME280;63804;53.120;8.764;2023-07-16T00:20:26;100818.34;;;20.92;69.78
54920;BME280;63804;53.120;8.764;2023-07-16T00:22:54;100818.09;;;21.02;69.65
54920;BME280;63804;53.120;8.764;2023-07-16T00:25:21;100820.50;;;20.97;69.81
54920;BME280;63804;53.120;8.764;2023-07-16T00:27:49;100834.66;;;20.90;70.33
54920;BME280;63804;53.120;8.764;2023-07-16T00:30:16;100851.69;;;20.83;70.68
54920;BME280;63804;53.120;8.764;2023-07-16T00:32:43;100862.13;;;20.86;70.02
54920;BME280;63804;53.120;8.764;2023-07-16T00:35:11;100859.97;;;20.81;69.84
54920;BME280;63804;53.120;8.764;2023-07-16T00:37:38;100866.66;;;20.85;69.87
54920;BME280;63804;53.120;8.764;2023-07-16T00:40:06;100871.34;;;20.91;70.00
54920;BME280;63804;53.120;8.764;2023-07-16T00:42:34;100856.94;;;20.84;69.93
54920;BME280;63804;53.120;8.764;2023-07-16T00:45:02;100841.34;;;20.72;70.83
54920;BME280;63804;53.120;8.764;2023-07-16T00:47:30;100859.78;;;20.83;70.30
54920;BME280;63804;53.120;8.764;2023-07-16T00:49:57;100861.00;;;20.80;70.65
54920;BME280;63804;53.120;8.764;2023-07-16T00:52:25;100863.69;;;20.80;70.10
54920;BME280;63804;53.120;8.764;2023-07-16T00:54:52;100867.34;;;20.87;69.62
54920;BME280;63804;53.120;8.764;2023-07-16T00:57:20;100872.53;;;20.89;69.57
54920;BME280;63804;53.120;8.764;2023-07-16T00:59:47;100861.69;;;20.74;69.81
54920;BME280;63804;53.120;8.764;2023-07-16T01:02:14;100869.91;;;20.81;69.94
54920;BME280;63804;53.120;8.764;2023-07-16T01:04:42;100882.81;;;20.85;70.12
54920;BME280;63804;53.120;8.764;2023-07-16T01:07:11;100910.78;;;20.84;69.97
54920;BME280;63804;53.120;8.764;2023-07-16T01:09:42;100915.81;;;20.79;70.60
54920;BME280;63804;53.120;8.764;2023-07-16T01:12:09;100915.22;;;20.69;70.75
54920;BME280;63804;53.120;8.764;2023-07-16T01:14:38;100916.41;;;20.66;71.26
54920;BME280;63804;53.120;8.764;2023-07-16T01:17:06;100911.84;;;20.67;70.83
54920;BME280;63804;53.120;8.764;2023-07-16T01:19:35;100902.09;;;20.66;70.91
54920;BME280;63804;53.120;8.764;2023-07-16T01:25:53;100919.38;;;20.72;70.59
54920;BME280;63804;53.120;8.764;2023-07-16T01:28:22;100913.53;;;20.68;70.97
54920;BME280;63804;53.120;8.764;2023-07-16T01:30:55;100905.81;;;20.65;71.04
54920;BME280;63804;53.120;8.764;2023-07-16T01:33:25;100914.88;;;20.72;71.12
54920;BME280;63804;53.120;8.764;2023-07-16T01:35:53;100914.19;;;20.70;71.43
54920;BME280;63804;53.120;8.764;2023-07-16T01:38:21;100916.41;;;20.66;70.89
54920;BME280;63804;53.120;8.764;2023-07-16T01:40:50;100913.06;;;20.64;71.28
54920;BME280;63804;53.120;8.764;2023-07-16T01:43:17;100913.22;;;20.63;71.91
54920;BME280;63804;53.120;8.764;2023-07-16T01:45:44;100915.75;;;20.64;70.96
54920;BME280;63804;53.120;8.764;2023-07-16T01:48:24;100919.75;;;20.68;70.90
54920;BME280;63804;53.120;8.764;2023-07-16T01:50:55;100915.41;;;20.59;71.71
54920;BME280;63804;53.120;8.764;2023-07-16T01:53:22;100913.44;;;20.53;72.00
54920;BME280;63804;53.120;8.764;2023-07-16T01:55:49;100909.88;;;20.53;71.89
54920;BME280;63804;53.120;8.764;2023-07-16T01:58:17;100901.81;;;20.53;72.33
54920;BME280;63804;53.120;8.764;2023-07-16T02:00:44;100897.75;;;20.49;72.08
54920;BME280;63804;53.120;8.764;2023-07-16T02:03:11;100898.63;;;20.41;72.88
54920;BME280;63804;53.120;8.764;2023-07-16T02:05:39;100895.94;;;20.41;72.69
54920;BME280;63804;53.120;8.764;2023-07-16T02:08:06;100895.44;;;20.45;72.78
54920;BME280;63804;53.120;8.764;2023-07-16T02:10:33;100893.09;;;20.51;72.25
54920;BME280;63804;53.120;8.764;2023-07-16T02:13:01;100897.25;;;20.45;72.42
54920;BME280;63804;53.120;8.764;2023-07-16T02:15:28;100886.53;;;20.53;71.84
54920;BME280;63804;53.120;8.764;2023-07-16T02:17:55;100885.31;;;20.48;71.79
54920;BME280;63804;53.120;8.764;2023-07-16T02:20:22;100891.41;;;20.50;71.87
54920;BME280;63804;53.120;8.764;2023-07-16T02:22:50;100895.59;;;20.52;71.70
54920;BME280;63804;53.120;8.764;2023-07-16T02:25:17;100892.59;;;20.39;72.14
54920;BME280;63804;53.120;8.764;2023-07-16T02:27:44;100904.38;;;20.38;72.61
54920;BME280;63804;53.120;8.764;2023-07-16T02:30:14;100902.31;;;20.48;72.12
54920;BME280;63804;53.120;8.764;2023-07-16T02:32:41;100902.66;;;20.45;72.08
54920;BME280;63804;53.120;8.764;2023-07-16T02:35:09;100906.03;;;20.47;71.85
54920;BME280;63804;53.120;8.764;2023-07-16T02:37:36;100910.25;;;20.50;71.65
54920;BME280;63804;53.120;8.764;2023-07-16T02:40:05;100904.03;;;20.49;71.35
54920;BME280;63804;53.120;8.764;2023-07-16T02:42:33;100906.84;;;20.48;71.46
54920;BME280;63804;53.120;8.764;2023-07-16T02:45:00;100895.63;;;20.36;71.93
54920;BME280;63804;53.120;8.764;2023-07-16T02:47:27;100909.09;;;20.36;72.31
54920;BME280;63804;53.120;8.764;2023-07-16T02:49:55;100908.59;;;20.32;72.44
54920;BME280;63804;53.120;8.764;2023-07-16T02:52:22;100909.09;;;20.36;72.38
54920;BME280;63804;53.120;8.764;2023-07-16T02:54:49;100916.66;;;20.32;71.90
54920;BME280;63804;53.120;8.764;2023-07-16T02:57:16;100914.00;;;20.24;72.42
54920;BME280;63804;53.120;8.764;2023-07-16T02:59:44;100908.94;;;20.29;72.19
54920;BME280;63804;53.120;8.764;2023-07-16T03:02:11;100919.19;;;20.26;72.15
54920;BME280;63804;53.120;8.764;2023-07-16T03:04:38;100924.56;;;20.26;72.36
54920;BME280;63804;53.120;8.764;2023-07-16T03:07:06;100926.59;;;20.24;72.05
54920;BME280;63804;53.120;8.764;2023-07-16T03:09:33;100923.22;;;20.30;71.88
54920;BME280;63804;53.120;8.764;2023-07-16T03:12:00;100922.75;;;20.26;71.80
54920;BME280;63804;53.120;8.764;2023-07-16T03:14:28;100924.25;;;20.20;72.11
54920;BME280;63804;53.120;8.764;2023-07-16T03:16:55;100923.59;;;20.18;72.54
54920;BME280;63804;53.120;8.764;2023-07-16T03:19:22;100935.03;;;20.12;73.02
54920;BME280;63804;53.120;8.764;2023-07-16T03:21:50;100934.19;;;20.20;72.25
54920;BME280;63804;53.120;8.764;2023-07-16T03:24:17;100934.00;;;20.13;72.50
54920;BME280;63804;53.120;8.764;2023-07-16T03:26:44;100932.50;;;20.19;72.66
54920;BME280;63804;53.120;8.764;2023-07-16T03:29:12;100944.78;;;20.13;72.57
54920;BME280;63804;53.120;8.764;2023-07-16T03:31:39;100950.00;;;20.15;73.21
54920;BME280;63804;53.120;8.764;2023-07-16T03:34:06;100937.03;;;20.10;73.20
54920;BME280;63804;53.120;8.764;2023-07-16T03:36:34;100944.28;;;20.10;73.33
54920;BME280;63804;53.120;8.764;2023-07-16T03:39:01;100955.03;;;20.10;73.45
54920;BME280;63804;53.120;8.764;2023-07-16T03:41:28;100959.06;;;20.14;73.47
54920;BME280;63804;53.120;8.764;2023-07-16T03:43:55;100956.34;;;20.22;73.04
54920;BME280;63804;53.120;8.764;2023-07-16T03:46:23;100960.38;;;20.18;73.04
54920;BME280;63804;53.120;8.764;2023-07-16T03:48:51;100966.97;;;20.15;73.38
54920;BME280;63804;53.120;8.764;2023-07-16T03:51:18;100962.59;;;20.06;73.48
54920;BME280;63804;53.120;8.764;2023-07-16T03:53:45;100976.72;;;20.08;73.60
54920;BME280;63804;53.120;8.764;2023-07-16T03:56:13;100972.34;;;19.99;73.63
54920;BME280;63804;53.120;8.764;2023-07-16T03:58:40;100971.69;;;20.05;73.87
54920;BME280;63804;53.120;8.764;2023-07-16T04:01:07;100986.78;;;20.23;73.25
54920;BME280;63804;53.120;8.764;2023-07-16T04:03:35;100984.59;;;20.10;73.65
54920;BME280;63804;53.120;8.764;2023-07-16T04:06:03;100985.78;;;20.15;73.42
54920;BME280;63804;53.120;8.764;2023-07-16T04:08:31;100980.41;;;20.15;73.10
54920;BME280;63804;53.120;8.764;2023-07-16T04:10:59;100986.63;;;20.08;73.51
54920;BME280;63804;53.120;8.764;2023-07-16T04:13:26;100980.44;;;20.07;73.16
54920;BME280;63804;53.120;8.764;2023-07-16T04:15:53;100977.56;;;19.92;73.49
54920;BME280;63804;53.120;8.764;2023-07-16T04:18:23;100976.22;;;19.88;73.94
54920;BME280;63804;53.120;8.764;2023-07-16T04:20:50;100981.59;;;19.96;73.64
54920;BME280;63804;53.120;8.764;2023-07-16T04:23:18;100984.09;;;19.98;73.71
54920;BME280;63804;53.120;8.764;2023-07-16T04:25:45;100981.41;;;20.06;73.24
54920;BME280;63804;53.120;8.764;2023-07-16T04:28:13;100975.72;;;20.01;73.27
54920;BME280;63804;53.120;8.764;2023-07-16T04:30:40;100985.31;;;20.04;73.20
54920;BME280;63804;53.120;8.764;2023-07-16T04:33:07;100985.78;;;19.99;73.46
54920;BME280;63804;53.120;8.764;2023-07-16T04:35:35;101002.09;;;20.06;73.17
54920;BME280;63804;53.120;8.764;2023-07-16T04:38:02;100993.00;;;19.99;73.09
54920;BME280;63804;53.120;8.764;2023-07-16T04:40:30;100999.91;;;20.01;73.02
54920;BME280;63804;53.120;8.764;2023-07-16T04:42:57;100994.88;;;19.98;73.28
54920;BME280;63804;53.120;8.764;2023-07-16T04:45:24;101001.91;;;19.99;73.00
54920;BME280;63804;53.120;8.764;2023-07-16T04:47:52;101011.31;;;19.95;73.38
54920;BME280;63804;53.120;8.764;2023-07-16T04:50:19;101008.50;;;19.96;72.98
54920;BME280;63804;53.120;8.764;2023-07-16T04:52:46;101012.84;;;19.89;73.19
54920;BME280;63804;53.120;8.764;2023-07-16T04:55:13;101014.69;;;19.97;72.56
54920;BME280;63804;53.120;8.764;2023-07-16T04:57:41;101009.00;;;19.92;72.81
54920;BME280;63804;53.120;8.764;2023-07-16T05:00:08;101019.25;;;19.96;72.54
54920;BME280;63804;53.120;8.764;2023-07-16T05:02:35;101012.00;;;19.89;72.37
54920;BME280;63804;53.120;8.764;2023-07-16T05:05:03;101014.84;;;19.87;72.57
54920;BME280;63804;53.120;8.764;2023-07-16T05:07:31;101026.97;;;20.00;72.29
54920;BME280;63804;53.120;8.764;2023-07-16T05:12:35;101013.19;;;19.94;71.70
54920;BME280;63804;53.120;8.764;2023-07-16T05:15:03;101018.56;;;19.86;71.55
54920;BME280;63804;53.120;8.764;2023-07-16T05:17:30;101037.88;;;19.98;71.60
54920;BME280;63804;53.120;8.764;2023-07-16T05:19:58;101029.63;;;19.91;71.49
54920;BME280;63804;53.120;8.764;2023-07-16T05:22:25;101035.88;;;20.00;71.02
54920;BME280;63804;53.120;8.764;2023-07-16T05:24:52;101041.41;;;20.07;70.89
54920;BME280;63804;53.120;8.764;2023-07-16T05:27:20;101043.75;;;20.10;70.68
54920;BME280;63804;53.120;8.764;2023-07-16T05:29:47;101035.53;;;20.11;70.67
54920;BME280;63804;53.120;8.764;2023-07-16T05:32:15;101035.38;;;20.13;70.32
54920;BME280;63804;53.120;8.764;2023-07-16T05:34:42;101041.41;;;20.07;69.95
54920;BME280;63804;53.120;8.764;2023-07-16T05:37:09;101043.59;;;19.95;69.66
54920;BME280;63804;53.120;8.764;2023-07-16T05:39:37;101038.38;;;20.02;68.59
54920;BME280;63804;53.120;8.764;2023-07-16T05:42:05;101035.03;;;20.08;68.72
54920;BME280;63804;53.120;8.764;2023-07-16T05:44:32;101041.59;;;20.05;68.75
54920;BME280;63804;53.120;8.764;2023-07-16T05:47:00;101035.38;;;20.13;67.92
54920;BME280;63804;53.120;8.764;2023-07-16T05:49:27;101033.88;;;20.18;68.00
54920;BME280;63804;53.120;8.764;2023-07-16T05:51:55;101045.78;;;20.16;67.68
54920;BME280;63804;53.120;8.764;2023-07-16T05:54:23;101046.97;;;20.05;67.45
54920;BME280;63804;53.120;8.764;2023-07-16T05:56:50;101029.31;;;20.11;67.50
54920;BME280;63804;53.120;8.764;2023-07-16T05:59:17;101045.47;;;20.19;67.34
54920;BME280;63804;53.120;8.764;2023-07-16T06:01:45;101054.38;;;20.19;67.19
54920;BME280;63804;53.120;8.764;2023-07-16T06:04:12;101053.00;;;20.24;67.26
54920;BME280;63804;53.120;8.764;2023-07-16T06:06:40;101042.91;;;20.17;67.40
54920;BME280;63804;53.120;8.764;2023-07-16T06:09:08;101049.13;;;20.18;67.02
54920;BME280;63804;53.120;8.764;2023-07-16T06:11:35;101050.84;;;20.19;67.30
54920;BME280;63804;53.120;8.764;2023-07-16T06:14:02;101056.72;;;20.23;67.38
54920;BME280;63804;53.120;8.764;2023-07-16T06:16:29;101053.84;;;20.32;67.03
54920;BME280;63804;53.120;8.764;2023-07-16T06:18:57;101053.00;;;20.32;66.82
54920;BME280;63804;53.120;8.764;2023-07-16T06:21:25;101054.66;;;20.41;66.68
54920;BME280;63804;53.120;8.764;2023-07-16T06:23:52;101052.66;;;20.43;66.59
54920;BME280;63804;53.120;8.764;2023-07-16T06:26:19;101052.47;;;20.44;66.81
54920;BME280;63804;53.120;8.764;2023-07-16T06:28:47;101051.13;;;20.40;67.15
54920;BME280;63804;53.120;8.764;2023-07-16T06:31:17;101051.81;;;20.42;66.56
54920;BME280;63804;53.120;8.764;2023-07-16T06:33:45;101053.19;;;20.38;66.06
54920;BME280;63804;53.120;8.764;2023-07-16T06:36:16;101057.22;;;20.42;65.20
54920;BME280;63804;53.120;8.764;2023-07-16T06:38:44;101061.75;;;20.42;65.27
54920;BME280;63804;53.120;8.764;2023-07-16T06:41:11;101068.47;;;20.46;65.37
54920;BME280;63804;53.120;8.764;2023-07-16T06:43:38;101057.22;;;20.34;65.57
54920;BME280;63804;53.120;8.764;2023-07-16T06:46:06;101062.06;;;20.47;65.63
54920;BME280;63804;53.120;8.764;2023-07-16T06:48:33;101078.09;;;20.57;65.60
54920;BME280;63804;53.120;8.764;2023-07-16T06:51:01;101077.22;;;20.64;65.62
54920;BME280;63804;53.120;8.764;2023-07-16T06:53:28;101073.66;;;20.64;65.29
54920;BME280;63804;53.120;8.764;2023-07-16T06:55:56;101086.28;;;20.63;65.42
54920;BME280;63804;53.120;8.764;2023-07-16T06:58:31;101088.09;;;20.79;65.56
54920;BME280;63804;53.120;8.764;2023-07-16T07:00:58;101088.97;;;20.80;65.43
54920;BME280;63804;53.120;8.764;2023-07-16T07:03:26;101101.19;;;21.07;64.42
54920;BME280;63804;53.120;8.764;2023-07-16T07:05:53;101093.94;;;21.07;64.46
54920;BME280;63804;53.120;8.764;2023-07-16T07:08:20;101097.28;;;21.09;65.16
54920;BME280;63804;53.120;8.764;2023-07-16T07:10:48;101090.88;;;21.18;64.79
54920;BME280;63804;53.120;8.764;2023-07-16T07:13:16;101096.78;;;21.14;64.98
54920;BME280;63804;53.120;8.764;2023-07-16T07:15:43;101095.31;;;21.03;64.89
54920;BME280;63804;53.120;8.764;2023-07-16T07:18:10;101090.25;;;21.00;64.92
54920;BME280;63804;53.120;8.764;2023-07-16T07:20:39;101100.84;;;21.02;64.11
54920;BME280;63804;53.120;8.764;2023-07-16T07:23:07;101098.50;;;20.90;64.29
54920;BME280;63804;53.120;8.764;2023-07-16T07:25:34;101110.81;;;20.93;64.38
54920;BME280;63804;53.120;8.764;2023-07-16T07:28:02;101108.16;;;20.77;64.45
54920;BME280;63804;53.120;8.764;2023-07-16T07:30:29;101108.16;;;20.77;64.91
54920;BME280;63804;53.120;8.764;2023-07-16T07:32:57;101101.41;;;20.81;65.42
54920;BME280;63804;53.120;8.764;2023-07-16T07:35:24;101100.56;;;20.80;65.43
54920;BME280;63804;53.120;8.764;2023-07-16T07:37:51;101097.69;;;20.90;65.29
54920;BME280;63804;53.120;8.764;2023-07-16T07:40:19;101114.50;;;20.92;64.56
54920;BME280;63804;53.120;8.764;2023-07-16T07:42:46;101097.69;;;20.82;64.43
54920;BME280;63804;53.120;8.764;2023-07-16T07:45:14;101105.06;;;20.96;63.25
54920;BME280;63804;53.120;8.764;2023-07-16T07:47:41;101102.19;;;20.98;62.64
54920;BME280;63804;53.120;8.764;2023-07-16T07:50:09;101113.16;;;20.96;62.30
54920;BME280;63804;53.120;8.764;2023-07-16T07:52:36;101102.22;;;20.89;61.32
54920;BME280;63804;53.120;8.764;2023-07-16T07:55:04;101115.47;;;21.15;60.85
54920;BME280;63804;53.120;8.764;2023-07-16T07:57:31;101115.56;;;21.30;59.67
54920;BME280;63804;53.120;8.764;2023-07-16T07:59:59;101116.75;;;21.28;59.22
54920;BME280;63804;53.120;8.764;2023-07-16T08:02:27;101120.66;;;21.17;59.60
54920;BME280;63804;53.120;8.764;2023-07-16T08:04:55;101107.31;;;21.32;59.06
54920;BME280;63804;53.120;8.764;2023-07-16T08:07:22;101106.16;;;21.26;59.84
54920;BME280;63804;53.120;8.764;2023-07-16T08:09:50;101114.06;;;21.28;59.39
54920;BME280;63804;53.120;8.764;2023-07-16T08:12:17;101121.78;;;21.39;59.37
54920;BME280;63804;53.120;8.764;2023-07-16T08:14:44;101117.56;;;21.45;59.52
54920;BME280;63804;53.120;8.764;2023-07-16T08:17:12;101116.38;;;21.47;59.22
54920;BME280;63804;53.120;8.764;2023-07-16T08:19:39;101124.78;;;21.52;58.45
54920;BME280;63804;53.120;8.764;2023-07-16T08:22:06;101128.81;;;21.48;58.08
54920;BME280;63804;53.120;8.764;2023-07-16T08:24:33;101139.59;;;21.48;57.67
54920;BME280;63804;53.120;8.764;2023-07-16T08:27:01;101131.88;;;21.45;56.79
54920;BME280;63804;53.120;8.764;2023-07-16T08:29:28;101140.09;;;21.52;55.79
54920;BME280;63804;53.120;8.764;2023-07-16T08:31:55;101147.69;;;21.56;55.25
54920;BME280;63804;53.120;8.764;2023-07-16T08:34:23;101161.56;;;21.76;54.55
54920;BME280;63804;53.120;8.764;2023-07-16T08:36:50;101147.72;;;21.79;53.19
54920;BME280;63804;53.120;8.764;2023-07-16T08:39:17;101152.63;;;21.76;53.21
54920;BME280;63804;53.120;8.764;2023-07-16T08:41:48;101156.66;;;21.80;53.00
54920;BME280;63804;53.120;8.764;2023-07-16T08:44:16;101144.63;;;21.90;52.19
54920;BME280;63804;53.120;8.764;2023-07-16T08:46:44;101144.38;;;22.00;52.92
54920;BME280;63804;53.120;8.764;2023-07-16T08:49:12;101158.72;;;22.01;53.05
54920;BME280;63804;53.120;8.764;2023-07-16T08:51:39;101160.28;;;21.95;52.91
54920;BME280;63804;53.120;8.764;2023-07-16T08:54:07;101150.97;;;21.98;53.19
54920;BME280;63804;53.120;8.764;2023-07-16T08:56:35;101154.94;;;21.87;52.43
54920;BME280;63804;53.120;8.764;2023-07-16T08:59:03;101175.28;;;21.89;51.96
54920;BME280;63804;53.120;8.764;2023-07-16T09:01:30;101167.03;;;21.91;51.95
54920;BME280;63804;53.120;8.764;2023-07-16T09:03:58;101184.63;;;22.10;52.04
54920;BME280;63804;53.120;8.764;2023-07-16T09:06:26;101183.41;;;22.12;50.60
54920;BME280;63804;53.120;8.764;2023-07-16T09:08:54;101178.13;;;21.96;51.52
54920;BME280;63804;53.120;8.764;2023-07-16T09:11:22;101185.19;;;21.97;51.29
54920;BME280;63804;53.120;8.764;2023-07-16T09:13:49;101176.63;;;21.94;50.98
54920;BME280;63804;53.120;8.764;2023-07-16T09:16:20;101196.47;;;22.01;50.79
54920;BME280;63804;53.120;8.764;2023-07-16T09:18:48;101196.25;;;22.19;50.51
54920;BME280;63804;53.120;8.764;2023-07-16T09:21:15;101198.63;;;22.05;50.03
54920;BME280;63804;53.120;8.764;2023-07-16T09:23:43;101192.31;;;21.90;51.12
54920;BME280;63804;53.120;8.764;2023-07-16T09:26:10;101202.63;;;21.86;50.94
54920;BME280;63804;53.120;8.764;2023-07-16T09:28:37;101197.81;;;21.65;50.89
54920;BME280;63804;53.120;8.764;2023-07-16T09:31:06;101196.84;;;21.58;51.75
54920;BME280;63804;53.120;8.764;2023-07-16T09:33:34;101198.47;;;21.76;50.57
54920;BME280;63804;53.120;8.764;2023-07-16T09:36:02;101208.59;;;22.05;50.07
54920;BME280;63804;53.120;8.764;2023-07-16T09:38:31;101203.16;;;22.21;49.84
54920;BME280;63804;53.120;8.764;2023-07-16T09:41:02;101206.81;;;22.51;49.00
54920;BME280;63804;53.120;8.764;2023-07-16T09:43:29;101210.38;;;22.52;49.25
54920;BME280;63804;53.120;8.764;2023-07-16T09:45:57;101208.84;;;22.49;49.06
54920;BME280;63804;53.120;8.764;2023-07-16T09:48:24;101215.28;;;22.48;49.20
54920;BME280;63804;53.120;8.764;2023-07-16T09:50:52;101221.44;;;22.34;48.93
54920;BME280;63804;53.120;8.764;2023-07-16T09:53:21;101212.56;;;22.25;49.33
54920;BME280;63804;53.120;8.764;2023-07-16T09:55:51;101221.50;;;22.49;48.89
54920;BME280;63804;53.120;8.764;2023-07-16T09:58:20;101226.50;;;22.60;48.64
54920;BME280;63804;53.120;8.764;2023-07-16T10:00:50;101223.66;;;22.53;48.49
54920;BME280;63804;53.120;8.764;2023-07-16T10:03:18;101207.72;;;22.67;47.91
54920;BME280;63804;53.120;8.764;2023-07-16T10:05:45;101210.88;;;22.70;48.63
54920;BME280;63804;53.120;8.764;2023-07-16T10:08:18;101209.75;;;22.65;48.85
54920;BME280;63804;53.120;8.764;2023-07-16T10:10:52;101223.66;;;22.53;48.18
54920;BME280;63804;53.120;8.764;2023-07-16T10:13:23;101215.56;;;22.53;49.13
54920;BME280;63804;53.120;8.764;2023-07-16T10:15:53;101220.31;;;22.51;49.14
54920;BME280;63804;53.120;8.764;2023-07-16T10:18:28;101217.22;;;22.77;48.95
54920;BME280;63804;53.120;8.764;2023-07-16T10:21:06;101216.22;;;22.78;48.91
54920;BME280;63804;53.120;8.764;2023-07-16T10:23:42;101214.09;;;22.88;48.49
54920;BME280;63804;53.120;8.764;2023-07-16T10:26:13;101221.16;;;22.98;48.51
54920;BME280;63804;53.120;8.764;2023-07-16T10:28:46;101228.16;;;22.84;48.35
54920;BME280;63804;53.120;8.764;2023-07-16T10:31:24;101211.31;;;22.82;47.61
54920;BME280;63804;53.120;8.764;2023-07-16T10:34:01;101229.88;;;22.77;48.36
54920;BME280;63804;53.120;8.764;2023-07-16T10:36:41;101239.97;;;22.83;47.96
54920;BME280;63804;53.120;8.764;2023-07-16T10:39:08;101223.22;;;22.87;47.84
54920;BME280;63804;53.120;8.764;2023-07-16T10:41:36;101234.19;;;22.94;47.47
54920;BME280;63804;53.120;8.764;2023-07-16T10:44:03;101243.81;;;22.88;46.78
54920;BME280;63804;53.120;8.764;2023-07-16T10:46:31;101239.06;;;22.91;47.28
54920;BME280;63804;53.120;8.764;2023-07-16T10:49:02;101249.81;;;22.76;46.74
54920;BME280;63804;53.120;8.764;2023-07-16T10:51:30;101247.88;;;22.84;46.35
54920;BME280;63804;53.120;8.764;2023-07-16T10:53:57;101246.69;;;22.87;46.91
54920;BME280;63804;53.120;8.764;2023-07-16T10:56:25;101253.59;;;22.90;46.94
54920;BME280;63804;53.120;8.764;2023-07-16T10:58:52;101249.88;;;22.91;47.32
54920;BME280;63804;53.120;8.764;2023-07-16T11:01:20;101247.84;;;22.93;46.58
54920;BME280;63804;53.120;8.764;2023-07-16T11:03:47;101245.34;;;22.91;46.91
54920;BME280;63804;53.120;8.764;2023-07-16T11:06:18;101252.56;;;23.14;46.54
54920;BME280;63804;53.120;8.764;2023-07-16T11:08:46;101252.69;;;23.20;46.88
54920;BME280;63804;53.120;8.764;2023-07-16T11:11:14;101256.13;;;23.14;46.44
54920;BME280;63804;53.120;8.764;2023-07-16T11:13:41;101253.16;;;23.24;46.39
54920;BME280;63804;53.120;8.764;2023-07-16T11:16:15;101254.38;;;23.21;46.49
54920;BME280;63804;53.120;8.764;2023-07-16T11:18:43;101249.56;;;23.08;46.45
54920;BME280;63804;53.120;8.764;2023-07-16T11:21:11;101265.00;;;23.00;47.30
54920;BME280;63804;53.120;8.764;2023-07-16T11:23:38;101275.03;;;23.14;47.41
54920;BME280;63804;53.120;8.764;2023-07-16T11:26:06;101262.38;;;23.29;46.56
54920;BME280;63804;53.120;8.764;2023-07-16T11:28:42;101258.56;;;23.53;45.66
54920;BME280;63804;53.120;8.764;2023-07-16T11:31:15;101268.03;;;23.72;45.58
54920;BME280;63804;53.120;8.764;2023-07-16T11:33:44;101264.22;;;23.67;45.36
54920;BME280;63804;53.120;8.764;2023-07-16T11:36:12;101266.63;;;23.76;45.66
54920;BME280;63804;53.120;8.764;2023-07-16T11:38:40;101266.56;;;23.70;46.06
54920;BME280;63804;53.120;8.764;2023-07-16T11:41:07;101271.72;;;23.56;45.86
54920;BME280;63804;53.120;8.764;2023-07-16T11:43:35;101269.41;;;23.53;45.53
54920;BME280;63804;53.120;8.764;2023-07-16T11:46:13;101273.50;;;23.49;45.13
54920;BME280;63804;53.120;8.764;2023-07-16T11:48:42;101283.81;;;23.31;45.75
54920;BME280;63804;53.120;8.764;2023-07-16T11:51:09;101293.94;;;23.14;46.25
54920;BME280;63804;53.120;8.764;2023-07-16T11:53:37;101292.78;;;22.94;46.24
54920;BME280;63804;53.120;8.764;2023-07-16T11:56:06;101292.78;;;22.85;46.08
54920;BME280;63804;53.120;8.764;2023-07-16T11:58:33;101295.63;;;22.92;46.52
54920;BME280;63804;53.120;8.764;2023-07-16T12:01:01;101287.81;;;23.20;46.13
54920;BME280;63804;53.120;8.764;2023-07-16T12:03:28;101286.94;;;23.20;45.58
54920;BME280;63804;53.120;8.764;2023-07-16T12:05:55;101288.47;;;23.22;46.21
54920;BME280;63804;53.120;8.764;2023-07-16T12:08:23;101296.00;;;23.27;45.83
54920;BME280;63804;53.120;8.764;2023-07-16T12:10:50;101300.03;;;23.31;45.45
54920;BME280;63804;53.120;8.764;2023-07-16T12:13:17;101310.88;;;23.08;46.29
54920;BME280;63804;53.120;8.764;2023-07-16T12:15:44;101292.25;;;22.90;46.36
54920;BME280;63804;53.120;8.764;2023-07-16T12:18:12;101302.97;;;23.06;46.21
54920;BME280;63804;53.120;8.764;2023-07-16T12:20:39;101291.72;;;23.18;45.64
54920;BME280;63804;53.120;8.764;2023-07-16T12:23:07;101292.31;;;23.43;46.31
54920;BME280;63804;53.120;8.764;2023-07-16T12:25:34;101287.03;;;23.64;45.26
54920;BME280;63804;53.120;8.764;2023-07-16T12:28:02;101296.47;;;23.68;44.97
54920;BME280;63804;53.120;8.764;2023-07-16T12:30:29;101303.91;;;23.51;44.47
54920;BME280;63804;53.120;8.764;2023-07-16T12:32:57;101299.59;;;23.42;44.94
54920;BME280;63804;53.120;8.764;2023-07-16T12:35:24;101313.56;;;23.46;45.07
54920;BME280;63804;53.120;8.764;2023-07-16T12:37:51;101311.31;;;23.34;45.57
54920;BME280;63804;53.120;8.764;2023-07-16T12:40:19;101315.75;;;23.13;46.51
54920;BME280;63804;53.120;8.764;2023-07-16T12:42:46;101321.19;;;23.04;46.52
54920;BME280;63804;53.120;8.764;2023-07-16T12:45:13;101324.16;;;23.18;46.65
54920;BME280;63804;53.120;8.764;2023-07-16T12:47:40;101320.22;;;23.43;46.02
54920;BME280;63804;53.120;8.764;2023-07-16T12:50:09;101340.69;;;23.38;46.44
54920;BME280;63804;53.120;8.764;2023-07-16T12:52:36;101345.34;;;23.29;45.87
54920;BME280;63804;53.120;8.764;2023-07-16T12:55:04;101328.47;;;23.04;46.84
54920;BME280;63804;53.120;8.764;2023-07-16T12:57:31;101350.97;;;22.96;46.66
54920;BME280;63804;53.120;8.764;2023-07-16T12:59:59;101348.06;;;23.06;46.01